sensor_id;sensor_type;location;lat;lon;timestamp;pressure;altitude;pressure_sealevel;temperature;humidity
75409;BME280;63979;55.644;37.734;2022-11-15T00:00:28;100838.03;;;1.58;42.31
75409;BME280;63979;55.644;37.734;2022-11-15T00:05:29;100903.31;;;1.90;42.27
75409;BME280;63979;55.644;37.734;2022-11-15T00:10:30;100886.72;;;1.86;42.33
75409;BME280;63979;55.644;37.734;2022-11-15T00:15:31;100899.94;;;1.81;42.71
75409;BME280;63979;55.644;37.734;2022-11-15T00:20:35;100895.53;;;1.83;42.64
75409;BME280;63979;55.644;37.734;2022-11-15T00:25:36;100890.13;;;1.91;43.33
75409;BME280;63979;55.644;37.734;2022-11-15T00:30:37;100870.03;;;1.85;42.67
75409;BME280;63979;55.644;37.734;2022-11-15T00:35:38;100867.34;;;1.90;43.51
75409;BME280;63979;55.644;37.734;2022-11-15T00:40:39;100876.03;;;1.95;43.23
75409;BME280;63979;55.644;37.734;2022-11-15T00:45:40;100883.81;;;2.01;43.06
75409;BME280;63979;55.644;37.734;2022-11-15T00:50:41;100873.38;;;1.95;42.68
75409;BME280;63979;55.644;37.734;2022-11-15T00:55:42;100799.59;;;1.47;42.79
75409;BME280;63979;55.644;37.734;2022-11-15T01:00:42;100843.72;;;1.85;43.35
75409;BME280;63979;55.644;37.734;2022-11-15T01:05:43;100821.47;;;1.51;43.67
75409;BME280;63979;55.644;37.734;2022-11-15T01:10:44;100840.41;;;1.73;43.49
75409;BME280;63979;55.644;37.734;2022-11-15T01:15:45;100824.91;;;1.56;44.02
75409;BME280;63979;55.644;37.734;2022-11-15T01:20:46;100848.25;;;1.77;43.13
75409;BME280;63979;55.644;37.734;2022-11-15T01:25:47;100835.13;;;1.76;43.53
75409;BME280;63979;55.644;37.734;2022-11-15T01:30:48;100845.66;;;1.73;44.09
75409;BME280;63979;55.644;37.734;2022-11-15T01:35:49;100817.78;;;1.63;43.98
75409;BME280;63979;55.644;37.734;2022-11-15T01:40:50;100793.41;;;1.51;43.60
75409;BME280;63979;55.644;37.734;2022-11-15T01:45:58;100830.13;;;1.58;43.60
75409;BME280;63979;55.644;37.734;2022-11-15T01:51:04;100820.50;;;1.56;44.35
75409;BME280;63979;55.644;37.734;2022-11-15T01:56:10;100823.94;;;1.62;44.23
75409;BME280;63979;55.644;37.734;2022-11-15T02:01:14;100820.53;;;1.55;43.62
75409;BME280;63979;55.644;37.734;2022-11-15T02:06:15;100813.75;;;1.40;44.41
75409;BME280;63979;55.644;37.734;2022-11-15T02:11:16;100814.63;;;1.38;44.35
75409;BME280;63979;55.644;37.734;2022-11-15T02:27:02;100816.28;;;1.46;43.93
75409;BME280;63979;55.644;37.734;2022-11-15T02:33:00;100793.72;;;1.30;44.21
75409;BME280;63979;55.644;37.734;2022-11-15T02:37:57;100785.06;;;1.23;44.99
75409;BME280;63979;55.644;37.734;2022-11-15T02:43:04;100806.88;;;1.30;44.69
75409;BME280;63979;55.644;37.734;2022-11-15T02:48:26;100791.19;;;1.24;45.60
75409;BME280;63979;55.644;37.734;2022-11-15T02:53:27;100799.06;;;1.25;45.78
75409;BME280;63979;55.644;37.734;2022-11-15T02:58:48;100794.63;;;1.29;45.54
75409;BME280;63979;55.644;37.734;2022-11-15T03:04:02;100799.91;;;1.28;45.90
75409;BME280;63979;55.644;37.734;2022-11-15T03:09:39;100784.03;;;1.32;46.21
75409;BME280;63979;55.644;37.734;2022-11-15T03:14:52;100765.88;;;1.17;46.64
75409;BME280;63979;55.644;37.734;2022-11-15T03:19:57;100785.13;;;1.20;46.65
75409;BME280;63979;55.644;37.734;2022-11-15T03:25:04;100758.91;;;1.14;45.92
75409;BME280;63979;55.644;37.734;2022-11-15T03:30:08;100769.41;;;1.16;46.26
75409;BME280;63979;55.644;37.734;2022-11-15T03:35:13;100777.53;;;0.99;45.62
75409;BME280;63979;55.644;37.734;2022-11-15T03:40:17;100779.19;;;1.08;45.38
75409;BME280;63979;55.644;37.734;2022-11-15T03:45:27;100780.91;;;1.09;46.78
75409;BME280;63979;55.644;37.734;2022-11-15T03:50:30;100759.00;;;1.08;44.90
75409;BME280;63979;55.644;37.734;2022-11-15T03:55:32;100779.16;;;1.09;45.42
75409;BME280;63979;55.644;37.734;2022-11-15T04:00:34;100755.69;;;0.96;45.85
75409;BME280;63979;55.644;37.734;2022-11-15T04:05:35;100764.53;;;0.88;46.01
75409;BME280;63979;55.644;37.734;2022-11-15T04:10:54;100765.50;;;0.83;45.80
75409;BME280;63979;55.644;37.734;2022-11-15T04:16:13;100783.06;;;0.79;45.18
75409;BME280;63979;55.644;37.734;2022-11-15T04:21:14;100769.09;;;0.77;45.41
75409;BME280;63979;55.644;37.734;2022-11-15T04:26:44;100768.47;;;0.55;47.13
75409;BME280;63979;55.644;37.734;2022-11-15T04:32:22;100756.97;;;0.66;46.98
75409;BME280;63979;55.644;37.734;2022-11-15T04:37:41;100761.31;;;0.68;46.72
75409;BME280;63979;55.644;37.734;2022-11-15T04:43:01;100767.41;;;0.73;46.36
75409;BME280;63979;55.644;37.734;2022-11-15T04:48:17;100702.94;;;0.46;45.69
75409;BME280;63979;55.644;37.734;2022-11-15T04:53:19;100747.25;;;0.72;46.32
75409;BME280;63979;55.644;37.734;2022-11-15T04:58:20;100732.50;;;0.60;46.89
75409;BME280;63979;55.644;37.734;2022-11-15T05:03:21;100728.88;;;0.69;46.12
75409;BME280;63979;55.644;37.734;2022-11-15T05:08:40;100731.63;;;0.61;46.66
75409;BME280;63979;55.644;37.734;2022-11-15T05:13:42;100614.31;;;-0.03;46.60
75409;BME280;63979;55.644;37.734;2022-11-15T05:18:43;100734.19;;;0.66;47.07
75409;BME280;63979;55.644;37.734;2022-11-15T05:23:44;100697.59;;;0.54;46.60
75409;BME280;63979;55.644;37.734;2022-11-15T05:28:45;100716.63;;;0.71;47.15
75409;BME280;63979;55.644;37.734;2022-11-15T05:33:48;100734.88;;;0.80;46.78
75409;BME280;63979;55.644;37.734;2022-11-15T05:38:50;100698.59;;;0.44;47.08
75409;BME280;63979;55.644;37.734;2022-11-15T05:43:52;100726.53;;;0.51;46.19
75409;BME280;63979;55.644;37.734;2022-11-15T05:48:53;100718.50;;;0.61;46.86
75409;BME280;63979;55.644;37.734;2022-11-15T05:53:58;100694.28;;;0.40;47.33
75409;BME280;63979;55.644;37.734;2022-11-15T05:58:59;100694.25;;;0.43;47.70
75409;BME280;63979;55.644;37.734;2022-11-15T06:04:00;100698.28;;;0.65;46.75
75409;BME280;63979;55.644;37.734;2022-11-15T06:09:01;100699.84;;;0.80;46.17
75409;BME280;63979;55.644;37.734;2022-11-15T06:14:03;100712.94;;;0.83;46.44
75409;BME280;63979;55.644;37.734;2022-11-15T06:19:06;100698.78;;;0.91;46.75
75409;BME280;63979;55.644;37.734;2022-11-15T06:24:07;100706.94;;;0.75;46.66
75409;BME280;63979;55.644;37.734;2022-11-15T06:29:08;100683.03;;;0.91;46.36
75409;BME280;63979;55.644;37.734;2022-11-15T06:34:09;100681.84;;;1.12;46.30
75409;BME280;63979;55.644;37.734;2022-11-15T06:39:10;100683.72;;;1.04;47.32
75409;BME280;63979;55.644;37.734;2022-11-15T06:44:11;100690.38;;;0.68;46.99
75409;BME280;63979;55.644;37.734;2022-11-15T06:49:12;100673.97;;;0.52;47.02
75409;BME280;63979;55.644;37.734;2022-11-15T06:54:13;100682.66;;;0.56;47.74
75409;BME280;63979;55.644;37.734;2022-11-15T06:59:14;100674.53;;;0.76;47.29
75409;BME280;63979;55.644;37.734;2022-11-15T07:04:15;100601.53;;;0.38;47.14
75409;BME280;63979;55.644;37.734;2022-11-15T07:09:16;100629.25;;;0.57;48.14
75409;BME280;63979;55.644;37.734;2022-11-15T07:14:17;100657.50;;;0.98;47.43
75409;BME280;63979;55.644;37.734;2022-11-15T07:19:18;100627.16;;;0.80;46.70
75409;BME280;63979;55.644;37.734;2022-11-15T07:24:19;100593.84;;;0.82;47.19
75409;BME280;63979;55.644;37.734;2022-11-15T07:29:19;100652.78;;;1.20;46.34
75409;BME280;63979;55.644;37.734;2022-11-15T07:34:21;100612.75;;;1.04;45.77
75409;BME280;63979;55.644;37.734;2022-11-15T07:39:22;100606.72;;;0.96;45.97
75409;BME280;63979;55.644;37.734;2022-11-15T07:44:23;100642.44;;;1.11;46.80
75409;BME280;63979;55.644;37.734;2022-11-15T07:49:24;100616.03;;;1.17;46.99
75409;BME280;63979;55.644;37.734;2022-11-15T07:54:25;100621.19;;;1.21;46.37
75409;BME280;63979;55.644;37.734;2022-11-15T07:59:26;100622.41;;;1.02;47.52
75409;BME280;63979;55.644;37.734;2022-11-15T08:04:27;100601.59;;;0.88;47.61
75409;BME280;63979;55.644;37.734;2022-11-15T08:09:28;100596.00;;;0.56;48.44
75409;BME280;63979;55.644;37.734;2022-11-15T08:14:29;100613.00;;;0.87;47.50
75409;BME280;63979;55.644;37.734;2022-11-15T08:19:30;100609.09;;;1.13;47.21
75409;BME280;63979;55.644;37.734;2022-11-15T08:24:31;100576.59;;;1.17;46.48
75409;BME280;63979;55.644;37.734;2022-11-15T08:29:32;100611.22;;;1.40;46.36
75409;BME280;63979;55.644;37.734;2022-11-15T08:34:33;100574.75;;;1.22;46.45
75409;BME280;63979;55.644;37.734;2022-11-15T08:39:34;100593.63;;;1.44;46.90
75409;BME280;63979;55.644;37.734;2022-11-15T08:44:35;100575.25;;;1.42;46.03
75409;BME280;63979;55.644;37.734;2022-11-15T08:49:36;100556.19;;;1.30;47.29
75409;BME280;63979;55.644;37.734;2022-11-15T08:54:37;100562.69;;;1.10;47.74
75409;BME280;63979;55.644;37.734;2022-11-15T08:59:39;100569.94;;;1.44;46.29
75409;BME280;63979;55.644;37.734;2022-11-15T09:04:43;100573.31;;;1.50;46.77
75409;BME280;63979;55.644;37.734;2022-11-15T09:09:44;100537.00;;;1.24;46.34
75409;BME280;63979;55.644;37.734;2022-11-15T09:14:45;100527.47;;;1.19;47.38
75409;BME280;63979;55.644;37.734;2022-11-15T09:19:46;100537.75;;;1.31;46.66
75409;BME280;63979;55.644;37.734;2022-11-15T09:24:47;100553.91;;;1.11;48.04
75409;BME280;63979;55.644;37.734;2022-11-15T09:29:48;100557.38;;;1.13;48.63
75409;BME280;63979;55.644;37.734;2022-11-15T09:34:49;100528.88;;;1.35;47.33
75409;BME280;63979;55.644;37.734;2022-11-15T09:39:50;100522.56;;;1.45;46.89
75409;BME280;63979;55.644;37.734;2022-11-15T09:45:13;100539.69;;;1.21;49.04
75409;BME280;63979;55.644;37.734;2022-11-15T09:55:41;100479.94;;;1.28;48.62
75409;BME280;63979;55.644;37.734;2022-11-15T10:00:47;100516.47;;;1.43;47.78
75409;BME280;63979;55.644;37.734;2022-11-15T10:05:50;100527.28;;;1.28;48.07
75409;BME280;63979;55.644;37.734;2022-11-15T10:10:56;100470.78;;;1.06;48.82
75409;BME280;63979;55.644;37.734;2022-11-15T10:16:12;100510.47;;;1.35;47.72
75409;BME280;63979;55.644;37.734;2022-11-15T10:21:21;100507.03;;;1.33;48.41
75409;BME280;63979;55.644;37.734;2022-11-15T10:26:24;100500.41;;;1.14;48.79
75409;BME280;63979;55.644;37.734;2022-11-15T10:31:27;100468.97;;;1.08;48.60
75409;BME280;63979;55.644;37.734;2022-11-15T10:36:28;100416.41;;;0.61;49.93
75409;BME280;63979;55.644;37.734;2022-11-15T10:41:32;100461.72;;;0.74;50.32
75409;BME280;63979;55.644;37.734;2022-11-15T10:46:36;100442.47;;;0.74;50.14
75409;BME280;63979;55.644;37.734;2022-11-15T10:56:50;100433.66;;;1.21;48.66
75409;BME280;63979;55.644;37.734;2022-11-15T11:01:52;100444.03;;;0.84;50.67
75409;BME280;63979;55.644;37.734;2022-11-15T11:06:54;100440.59;;;0.80;51.40
75409;BME280;63979;55.644;37.734;2022-11-15T11:11:56;100427.25;;;0.91;50.53
75409;BME280;63979;55.644;37.734;2022-11-15T11:33:17;100356.44;;;0.83;49.78
75409;BME280;63979;55.644;37.734;2022-11-15T11:44:12;100395.94;;;0.80;51.58
75409;BME280;63979;55.644;37.734;2022-11-15T11:55:11;100340.59;;;0.45;52.26
75409;BME280;63979;55.644;37.734;2022-11-15T12:05:39;100404.69;;;0.31;55.86
75409;BME280;63979;55.644;37.734;2022-11-15T12:10:45;100353.16;;;0.26;55.84
75409;BME280;63979;55.644;37.734;2022-11-15T12:26:46;100324.16;;;-0.14;59.34
75409;BME280;63979;55.644;37.734;2022-11-15T12:31:51;100355.69;;;-0.17;61.59
75409;BME280;63979;55.644;37.734;2022-11-15T12:36:53;100361.53;;;0.00;60.82
75409;BME280;63979;55.644;37.734;2022-11-15T13:02:18;100287.81;;;-0.39;63.11
75409;BME280;63979;55.644;37.734;2022-11-15T13:17:45;100325.88;;;-0.13;65.62
75409;BME280;63979;55.644;37.734;2022-11-15T13:23:12;100316.28;;;-0.14;66.09
75409;BME280;63979;55.644;37.734;2022-11-15T13:33:18;100299.47;;;-0.04;66.44
75409;BME280;63979;55.644;37.734;2022-11-15T13:38:32;100289.69;;;-0.45;68.31
75409;BME280;63979;55.644;37.734;2022-11-15T13:43:35;100302.03;;;-0.52;68.88
75409;BME280;63979;55.644;37.734;2022-11-15T13:48:37;100290.84;;;-0.61;70.35
75409;BME280;63979;55.644;37.734;2022-11-15T13:53:40;100295.38;;;-0.74;70.79
75409;BME280;63979;55.644;37.734;2022-11-15T13:58:42;100277.50;;;-1.03;71.98
75409;BME280;63979;55.644;37.734;2022-11-15T14:04:11;100280.69;;;-0.84;73.15
75409;BME280;63979;55.644;37.734;2022-11-15T14:09:29;100222.50;;;-1.06;74.42
75409;BME280;63979;55.644;37.734;2022-11-15T14:14:31;100218.91;;;-0.98;72.86
75409;BME280;63979;55.644;37.734;2022-11-15T14:19:35;100277.56;;;-0.51;72.88
75409;BME280;63979;55.644;37.734;2022-11-15T14:24:37;100281.06;;;-0.52;72.93
75409;BME280;63979;55.644;37.734;2022-11-15T14:29:38;100258.63;;;-0.70;73.13
75409;BME280;63979;55.644;37.734;2022-11-15T14:34:39;100256.16;;;-0.80;73.55
75409;BME280;63979;55.644;37.734;2022-11-15T14:39:40;100256.91;;;-0.72;73.78
75409;BME280;63979;55.644;37.734;2022-11-15T14:44:41;100253.38;;;-0.68;74.97
75409;BME280;63979;55.644;37.734;2022-11-15T14:49:42;100240.16;;;-0.62;75.16
75409;BME280;63979;55.644;37.734;2022-11-15T14:54:43;100223.53;;;-0.59;74.85
75409;BME280;63979;55.644;37.734;2022-11-15T14:59:44;100206.03;;;-0.59;74.60
75409;BME280;63979;55.644;37.734;2022-11-15T15:04:45;100221.03;;;-0.67;75.03
75409;BME280;63979;55.644;37.734;2022-11-15T15:09:47;100211.16;;;-0.51;73.83
75409;BME280;63979;55.644;37.734;2022-11-15T15:14:49;100220.84;;;-0.56;74.67
75409;BME280;63979;55.644;37.734;2022-11-15T15:19:50;100154.03;;;-0.83;73.28
75409;BME280;63979;55.644;37.734;2022-11-15T15:24:51;100206.97;;;-0.61;74.32
75409;BME280;63979;55.644;37.734;2022-11-15T15:29:52;100201.94;;;-0.75;74.25
75409;BME280;63979;55.644;37.734;2022-11-15T15:34:53;100187.97;;;-0.76;74.61
75409;BME280;63979;55.644;37.734;2022-11-15T15:39:56;100193.88;;;-0.63;75.41
75409;BME280;63979;55.644;37.734;2022-11-15T15:44:57;100180.59;;;-0.54;75.21
75409;BME280;63979;55.644;37.734;2022-11-15T15:49:58;100173.84;;;-0.67;75.02
75409;BME280;63979;55.644;37.734;2022-11-15T15:54:59;100141.75;;;-0.81;74.57
75409;BME280;63979;55.644;37.734;2022-11-15T16:00:00;100153.97;;;-0.80;74.95
75409;BME280;63979;55.644;37.734;2022-11-15T16:05:01;100143.47;;;-0.79;75.73
75409;BME280;63979;55.644;37.734;2022-11-15T16:10:18;100084.50;;;-1.04;74.84
75409;BME280;63979;55.644;37.734;2022-11-15T16:15:20;100142.09;;;-0.50;75.27
75409;BME280;63979;55.644;37.734;2022-11-15T16:20:47;100135.97;;;-0.51;75.32
75409;BME280;63979;55.644;37.734;2022-11-15T16:25:54;100120.50;;;-0.63;75.30
75409;BME280;63979;55.644;37.734;2022-11-15T16:36:02;100130.81;;;-0.55;74.65
75409;BME280;63979;55.644;37.734;2022-11-15T16:41:03;100130.81;;;-0.55;75.43
75409;BME280;63979;55.644;37.734;2022-11-15T16:46:24;100118.75;;;-0.64;75.29
75409;BME280;63979;55.644;37.734;2022-11-15T16:51:26;100052.28;;;-1.08;75.20
75409;BME280;63979;55.644;37.734;2022-11-15T16:56:29;100112.72;;;-0.68;76.02
75409;BME280;63979;55.644;37.734;2022-11-15T17:01:32;100081.66;;;-0.90;76.20
75409;BME280;63979;55.644;37.734;2022-11-15T17:06:35;100101.53;;;-0.79;76.46
75409;BME280;63979;55.644;37.734;2022-11-15T17:11:36;100050.56;;;-1.09;76.25
75409;BME280;63979;55.644;37.734;2022-11-15T17:16:37;100090.28;;;-0.84;76.86
75409;BME280;63979;55.644;37.734;2022-11-15T17:21:42;100098.91;;;-0.79;76.53
75409;BME280;63979;55.644;37.734;2022-11-15T17:26:44;100104.91;;;-0.72;76.36
75409;BME280;63979;55.644;37.734;2022-11-15T17:31:44;100092.69;;;-0.73;76.31
75409;BME280;63979;55.644;37.734;2022-11-15T17:36:45;100090.22;;;-0.81;76.66
75409;BME280;63979;55.644;37.734;2022-11-15T17:41:47;100056.56;;;-1.02;76.85
75409;BME280;63979;55.644;37.734;2022-11-15T17:46:48;100028.03;;;-1.19;76.95
75409;BME280;63979;55.644;37.734;2022-11-15T17:51:50;100077.28;;;-0.88;77.52
75409;BME280;63979;55.644;37.734;2022-11-15T17:56:52;100089.53;;;-0.90;77.68
75409;BME280;63979;55.644;37.734;2022-11-15T18:01:53;100091.97;;;-0.81;77.97
75409;BME280;63979;55.644;37.734;2022-11-15T18:06:54;100071.72;;;-0.73;77.81
75409;BME280;63979;55.644;37.734;2022-11-15T18:11:56;100079.38;;;-0.61;77.06
75409;BME280;63979;55.644;37.734;2022-11-15T18:16:58;100065.53;;;-0.68;76.68
75409;BME280;63979;55.644;37.734;2022-11-15T18:21:59;100068.91;;;-0.61;76.82
75409;BME280;63979;55.644;37.734;2022-11-15T18:27:03;100072.44;;;-0.64;76.50
75409;BME280;63979;55.644;37.734;2022-11-15T18:32:05;100057.72;;;-0.72;76.54
75409;BME280;63979;55.644;37.734;2022-11-15T18:37:11;100066.38;;;-0.66;76.39
75409;BME280;63979;55.644;37.734;2022-11-15T18:42:12;100061.38;;;-0.79;75.93
75409;BME280;63979;55.644;37.734;2022-11-15T18:47:13;100051.00;;;-0.85;76.87
75409;BME280;63979;55.644;37.734;2022-11-15T18:52:14;100001.59;;;-1.04;76.91
75409;BME280;63979;55.644;37.734;2022-11-15T18:57:15;100039.56;;;-0.81;76.37
75409;BME280;63979;55.644;37.734;2022-11-15T19:02:17;99991.13;;;-1.07;76.29
75409;BME280;63979;55.644;37.734;2022-11-15T19:07:18;100040.34;;;-0.76;76.38
75409;BME280;63979;55.644;37.734;2022-11-15T19:12:19;100040.38;;;-0.78;76.19
75409;BME280;63979;55.644;37.734;2022-11-15T19:17:20;100041.47;;;-0.89;76.64
75409;BME280;63979;55.644;37.734;2022-11-15T19:22:21;100039.69;;;-0.87;76.61
75409;BME280;63979;55.644;37.734;2022-11-15T19:27:23;100034.59;;;-0.95;76.63
75409;BME280;63979;55.644;37.734;2022-11-15T19:32:24;100021.47;;;-0.93;77.06
75409;BME280;63979;55.644;37.734;2022-11-15T19:37:25;100030.09;;;-0.88;76.73
75409;BME280;63979;55.644;37.734;2022-11-15T19:42:26;99960.91;;;-1.23;77.14
75409;BME280;63979;55.644;37.734;2022-11-15T19:47:29;100014.66;;;-1.02;77.03
75409;BME280;63979;55.644;37.734;2022-11-15T19:52:30;100023.31;;;-0.99;76.93
75409;BME280;63979;55.644;37.734;2022-11-15T19:57:32;99954.75;;;-1.20;76.87
75409;BME280;63979;55.644;37.734;2022-11-15T20:02:33;100006.38;;;-0.81;76.49
75409;BME280;63979;55.644;37.734;2022-11-15T20:07:34;99994.53;;;-1.00;75.54
75409;BME280;63979;55.644;37.734;2022-11-15T20:12:35;100002.44;;;-1.05;75.36
75409;BME280;63979;55.644;37.734;2022-11-15T20:17:36;99947.38;;;-1.46;75.72
75409;BME280;63979;55.644;37.734;2022-11-15T20:22:37;100004.53;;;-1.22;75.99
75409;BME280;63979;55.644;37.734;2022-11-15T20:27:38;99997.53;;;-1.21;75.71
75409;BME280;63979;55.644;37.734;2022-11-15T20:32:40;100009.78;;;-1.22;76.82
75409;BME280;63979;55.644;37.734;2022-11-15T20:37:41;99992.50;;;-1.32;76.56
75409;BME280;63979;55.644;37.734;2022-11-15T20:42:42;99982.94;;;-1.35;76.40
75409;BME280;63979;55.644;37.734;2022-11-15T20:47:43;99988.75;;;-1.19;77.13
75409;BME280;63979;55.644;37.734;2022-11-15T20:52:44;99989.69;;;-1.21;76.04
75409;BME280;63979;55.644;37.734;2022-11-15T20:57:46;99974.84;;;-1.21;76.29
75409;BME280;63979;55.644;37.734;2022-11-15T21:02:48;99947.22;;;-1.37;76.05
75409;BME280;63979;55.644;37.734;2022-11-15T21:07:49;99981.03;;;-1.25;77.17
75409;BME280;63979;55.644;37.734;2022-11-15T21:12:50;99973.41;;;-1.37;76.84
75409;BME280;63979;55.644;37.734;2022-11-15T21:17:51;99959.34;;;-1.32;76.40
75409;BME280;63979;55.644;37.734;2022-11-15T21:22:52;99967.94;;;-1.25;76.51
75409;BME280;63979;55.644;37.734;2022-11-15T21:27:54;99965.09;;;-1.14;76.34
75409;BME280;63979;55.644;37.734;2022-11-15T21:32:55;99960.44;;;-0.99;77.37
75409;BME280;63979;55.644;37.734;2022-11-15T21:37:56;99963.63;;;-0.83;76.82
75409;BME280;63979;55.644;37.734;2022-11-15T21:42:57;99940.34;;;-0.98;76.65
75409;BME280;63979;55.644;37.734;2022-11-15T21:47:58;99966.97;;;-0.76;76.34
75409;BME280;63979;55.644;37.734;2022-11-15T21:53:00;99974.31;;;-0.93;76.50
75409;BME280;63979;55.644;37.734;2022-11-15T21:58:01;99974.94;;;-0.81;76.70
75409;BME280;63979;55.644;37.734;2022-11-15T22:03:02;99964.22;;;-0.69;75.96
75409;BME280;63979;55.644;37.734;2022-11-15T22:08:03;99963.44;;;-0.74;75.90
75409;BME280;63979;55.644;37.734;2022-11-15T22:13:05;99962.63;;;-0.77;75.64
75409;BME280;63979;55.644;37.734;2022-11-15T22:18:06;99973.84;;;-0.69;76.04
75409;BME280;63979;55.644;37.734;2022-11-15T22:23:07;99963.34;;;-0.71;75.40
75409;BME280;63979;55.644;37.734;2022-11-15T22:28:08;99971.09;;;-0.63;75.05
75409;BME280;63979;55.644;37.734;2022-11-15T22:33:09;99958.34;;;-0.81;75.27
75409;BME280;63979;55.644;37.734;2022-11-15T22:38:10;99958.47;;;-0.87;74.33
75409;BME280;63979;55.644;37.734;2022-11-15T22:43:13;99955.59;;;-0.75;74.20
75409;BME280;63979;55.644;37.734;2022-11-15T22:48:15;99961.69;;;-0.75;74.10
75409;BME280;63979;55.644;37.734;2022-11-15T22:53:17;99949.47;;;-0.74;74.58
75409;BME280;63979;55.644;37.734;2022-11-15T22:58:20;99964.25;;;-0.72;74.88
75409;BME280;63979;55.644;37.734;2022-11-15T23:03:23;99954.81;;;-0.80;74.74
75409;BME280;63979;55.644;37.734;2022-11-15T23:08:24;99964.47;;;-0.82;74.71
75409;BME280;63979;55.644;37.734;2022-11-15T23:13:27;99957.41;;;-0.79;75.55
75409;BME280;63979;55.644;37.734;2022-11-15T23:18:31;99949.00;;;-0.93;74.45
75409;BME280;63979;55.644;37.734;2022-11-15T23:23:33;99943.03;;;-1.01;74.50
75409;BME280;63979;55.644;37.734;2022-11-15T23:28:34;99946.47;;;-0.98;74.02
75409;BME280;63979;55.644;37.734;2022-11-15T23:33:36;99943.91;;;-1.01;74.34
75409;BME280;63979;55.644;37.734;2022-11-15T23:38:57;99952.59;;;-0.99;74.25
75409;BME280;63979;55.644;37.734;2022-11-15T23:43:58;99936.97;;;-1.03;74.36
75409;BME280;63979;55.644;37.734;2022-11-15T23:49:00;99948.50;;;-1.13;74.59
75409;BME280;63979;55.644;37.734;2022-11-15T23:54:01;99938.28;;;-1.27;74.50
75409;BME280;63979;55.644;37.734;2022-11-15T23:59:03;99960.91;;;-1.23;74.92
